sensor_id;sensor_type;location;lat;lon;timestamp;temperature;humidity
57058;DHT22;55017;52.848;6.748;2023-07-20T00:02:20;15.10;99.90
57058;DHT22;55017;52.848;6.748;2023-07-20T00:04:45;15.30;99.90
57058;DHT22;55017;52.848;6.748;2023-07-20T00:07:11;15.30;99.90
57058;DHT22;55017;52.848;6.748;2023-07-20T00:09:36;15.10;99.90
57058;DHT22;55017;52.848;6.748;2023-07-20T00:12:02;15.20;99.90
57058;DHT22;55017;52.848;6.748;2023-07-20T00:14:28;15.20;99.90
57058;DHT22;55017;52.848;6.748;2023-07-20T00:16:55;15.20;99.90
57058;DHT22;55017;52.848;6.748;2023-07-20T00:19:25;15.20;99.90
57058;DHT22;55017;52.848;6.748;2023-07-20T00:21:51;15.20;99.90
57058;DHT22;55017;52.848;6.748;2023-07-20T00:24:17;15.10;99.90
57058;DHT22;55017;52.848;6.748;2023-07-20T00:26:43;15.10;99.90
57058;DHT22;55017;52.848;6.748;2023-07-20T00:29:08;15.20;99.90
57058;DHT22;55017;52.848;6.748;2023-07-20T00:31:35;15.20;99.90
57058;DHT22;55017;52.848;6.748;2023-07-20T00:34:02;15.20;99.90
57058;DHT22;55017;52.848;6.748;2023-07-20T00:36:28;15.30;99.90
57058;DHT22;55017;52.848;6.748;2023-07-20T00:38:54;15.20;99.90
57058;DHT22;55017;52.848;6.748;2023-07-20T00:41:20;15.10;99.90
57058;DHT22;55017;52.848;6.748;2023-07-20T00:43:45;15.10;99.90
57058;DHT22;55017;52.848;6.748;2023-07-20T00:46:11;15.10;99.90
57058;DHT22;55017;52.848;6.748;2023-07-20T00:48:37;15.10;99.90
57058;DHT22;55017;52.848;6.748;2023-07-20T00:51:03;15.10;99.90
57058;DHT22;55017;52.848;6.748;2023-07-20T00:53:29;15.00;99.90
57058;DHT22;55017;52.848;6.748;2023-07-20T00:55:55;15.00;99.90
57058;DHT22;55017;52.848;6.748;2023-07-20T00:58:21;15.00;99.90
57058;DHT22;55017;52.848;6.748;2023-07-20T01:00:47;15.00;99.90
57058;DHT22;55017;52.848;6.748;2023-07-20T01:03:12;15.00;99.90
57058;DHT22;55017;52.848;6.748;2023-07-20T01:08:32;14.90;99.90
57058;DHT22;55017;52.848;6.748;2023-07-20T01:11:12;14.90;99.90
57058;DHT22;55017;52.848;6.748;2023-07-20T01:13:41;14.80;99.90
57058;DHT22;55017;52.848;6.748;2023-07-20T01:16:08;14.80;99.90
57058;DHT22;55017;52.848;6.748;2023-07-20T01:18:33;14.80;99.90
57058;DHT22;55017;52.848;6.748;2023-07-20T01:20:59;14.90;99.90
57058;DHT22;55017;52.848;6.748;2023-07-20T01:23:34;14.90;99.90
57058;DHT22;55017;52.848;6.748;2023-07-20T01:29:27;14.90;99.90
57058;DHT22;55017;52.848;6.748;2023-07-20T01:32:00;14.90;99.90
57058;DHT22;55017;52.848;6.748;2023-07-20T01:34:29;14.90;99.90
57058;DHT22;55017;52.848;6.748;2023-07-20T01:36:56;14.90;99.90
57058;DHT22;55017;52.848;6.748;2023-07-20T01:39:23;14.80;99.90
57058;DHT22;55017;52.848;6.748;2023-07-20T01:41:49;14.90;99.90
57058;DHT22;55017;52.848;6.748;2023-07-20T01:44:15;14.80;99.90
57058;DHT22;55017;52.848;6.748;2023-07-20T01:46:40;14.80;99.90
57058;DHT22;55017;52.848;6.748;2023-07-20T01:49:06;14.70;99.90
57058;DHT22;55017;52.848;6.748;2023-07-20T01:51:32;14.70;99.90
57058;DHT22;55017;52.848;6.748;2023-07-20T01:53:57;14.60;99.90
57058;DHT22;55017;52.848;6.748;2023-07-20T01:56:23;14.60;99.90
57058;DHT22;55017;52.848;6.748;2023-07-20T01:58:48;14.60;99.90
57058;DHT22;55017;52.848;6.748;2023-07-20T02:01:14;14.40;99.90
57058;DHT22;55017;52.848;6.748;2023-07-20T02:03:39;14.40;99.90
57058;DHT22;55017;52.848;6.748;2023-07-20T02:06:05;14.30;99.90
57058;DHT22;55017;52.848;6.748;2023-07-20T02:08:31;14.30;99.90
57058;DHT22;55017;52.848;6.748;2023-07-20T02:10:56;14.20;99.90
57058;DHT22;55017;52.848;6.748;2023-07-20T02:13:22;14.10;99.90
57058;DHT22;55017;52.848;6.748;2023-07-20T02:15:47;14.10;99.90
57058;DHT22;55017;52.848;6.748;2023-07-20T02:18:14;14.00;99.90
57058;DHT22;55017;52.848;6.748;2023-07-20T02:20:41;13.90;99.90
57058;DHT22;55017;52.848;6.748;2023-07-20T02:23:07;13.80;99.90
57058;DHT22;55017;52.848;6.748;2023-07-20T02:25:32;13.80;99.90
57058;DHT22;55017;52.848;6.748;2023-07-20T02:27:58;13.70;99.90
57058;DHT22;55017;52.848;6.748;2023-07-20T02:30:24;13.60;99.90
57058;DHT22;55017;52.848;6.748;2023-07-20T02:32:50;13.70;99.90
57058;DHT22;55017;52.848;6.748;2023-07-20T02:35:16;13.70;99.90
57058;DHT22;55017;52.848;6.748;2023-07-20T02:37:41;13.60;99.90
57058;DHT22;55017;52.848;6.748;2023-07-20T02:40:07;13.60;99.90
57058;DHT22;55017;52.848;6.748;2023-07-20T02:42:34;13.50;99.90
57058;DHT22;55017;52.848;6.748;2023-07-20T02:45:01;13.40;99.90
57058;DHT22;55017;52.848;6.748;2023-07-20T02:47:27;13.40;99.90
57058;DHT22;55017;52.848;6.748;2023-07-20T02:49:52;13.50;99.90
57058;DHT22;55017;52.848;6.748;2023-07-20T02:52:18;13.40;99.90
57058;DHT22;55017;52.848;6.748;2023-07-20T02:54:43;13.30;99.90
57058;DHT22;55017;52.848;6.748;2023-07-20T02:57:09;13.20;99.90
57058;DHT22;55017;52.848;6.748;2023-07-20T02:59:34;13.20;99.90
57058;DHT22;55017;52.848;6.748;2023-07-20T03:02:00;13.10;99.90
57058;DHT22;55017;52.848;6.748;2023-07-20T03:04:26;13.10;99.90
57058;DHT22;55017;52.848;6.748;2023-07-20T03:06:52;13.10;99.90
57058;DHT22;55017;52.848;6.748;2023-07-20T03:09:18;13.00;99.90
57058;DHT22;55017;52.848;6.748;2023-07-20T03:11:43;13.00;99.90
57058;DHT22;55017;52.848;6.748;2023-07-20T03:14:09;13.00;99.90
57058;DHT22;55017;52.848;6.748;2023-07-20T03:16:36;13.00;99.90
57058;DHT22;55017;52.848;6.748;2023-07-20T03:19:02;12.90;99.90
57058;DHT22;55017;52.848;6.748;2023-07-20T03:21:29;12.90;99.90
57058;DHT22;55017;52.848;6.748;2023-07-20T03:23:54;12.90;99.90
57058;DHT22;55017;52.848;6.748;2023-07-20T03:26:20;12.90;99.90
57058;DHT22;55017;52.848;6.748;2023-07-20T03:28:46;12.80;99.90
57058;DHT22;55017;52.848;6.748;2023-07-20T03:31:12;12.80;99.90
57058;DHT22;55017;52.848;6.748;2023-07-20T03:33:38;12.70;99.90
57058;DHT22;55017;52.848;6.748;2023-07-20T03:36:04;12.80;99.90
57058;DHT22;55017;52.848;6.748;2023-07-20T03:38:29;12.60;99.90
57058;DHT22;55017;52.848;6.748;2023-07-20T03:40:57;12.70;99.90
57058;DHT22;55017;52.848;6.748;2023-07-20T03:43:24;12.70;99.90
57058;DHT22;55017;52.848;6.748;2023-07-20T03:45:51;12.80;99.90
57058;DHT22;55017;52.848;6.748;2023-07-20T03:48:23;12.70;99.90
57058;DHT22;55017;52.848;6.748;2023-07-20T03:50:50;12.60;99.90
57058;DHT22;55017;52.848;6.748;2023-07-20T03:53:16;12.70;99.90
57058;DHT22;55017;52.848;6.748;2023-07-20T03:55:49;12.70;99.90
57058;DHT22;55017;52.848;6.748;2023-07-20T03:58:17;12.50;99.90
57058;DHT22;55017;52.848;6.748;2023-07-20T04:00:47;12.60;99.90
57058;DHT22;55017;52.848;6.748;2023-07-20T04:03:13;12.60;99.90
57058;DHT22;55017;52.848;6.748;2023-07-20T04:05:39;12.50;99.90
57058;DHT22;55017;52.848;6.748;2023-07-20T04:08:05;12.60;99.90
57058;DHT22;55017;52.848;6.748;2023-07-20T04:10:30;12.60;99.90
57058;DHT22;55017;52.848;6.748;2023-07-20T04:12:56;12.70;99.90
57058;DHT22;55017;52.848;6.748;2023-07-20T04:15:22;12.60;99.90
57058;DHT22;55017;52.848;6.748;2023-07-20T04:17:47;12.70;99.90
57058;DHT22;55017;52.848;6.748;2023-07-20T04:20:13;12.60;99.90
57058;DHT22;55017;52.848;6.748;2023-07-20T04:22:39;12.70;99.90
57058;DHT22;55017;52.848;6.748;2023-07-20T04:25:04;12.70;99.90
57058;DHT22;55017;52.848;6.748;2023-07-20T04:27:30;12.70;99.90
57058;DHT22;55017;52.848;6.748;2023-07-20T04:29:57;12.80;99.90
57058;DHT22;55017;52.848;6.748;2023-07-20T04:32:23;12.70;99.90
57058;DHT22;55017;52.848;6.748;2023-07-20T04:34:48;12.70;99.90
57058;DHT22;55017;52.848;6.748;2023-07-20T04:37:14;12.70;99.90
57058;DHT22;55017;52.848;6.748;2023-07-20T04:39:39;12.70;99.90
57058;DHT22;55017;52.848;6.748;2023-07-20T04:42:05;12.80;99.90
57058;DHT22;55017;52.848;6.748;2023-07-20T04:44:30;12.90;99.90
57058;DHT22;55017;52.848;6.748;2023-07-20T04:46:56;12.80;99.90
57058;DHT22;55017;52.848;6.748;2023-07-20T04:49:22;12.80;99.90
57058;DHT22;55017;52.848;6.748;2023-07-20T04:51:47;12.80;99.90
57058;DHT22;55017;52.848;6.748;2023-07-20T04:54:13;12.90;99.90
57058;DHT22;55017;52.848;6.748;2023-07-20T04:56:39;12.80;99.90
57058;DHT22;55017;52.848;6.748;2023-07-20T04:59:04;12.90;99.90
57058;DHT22;55017;52.848;6.748;2023-07-20T05:01:30;12.90;99.90
57058;DHT22;55017;52.848;6.748;2023-07-20T05:03:55;13.00;99.90
57058;DHT22;55017;52.848;6.748;2023-07-20T05:06:21;13.00;99.90
57058;DHT22;55017;52.848;6.748;2023-07-20T05:08:46;13.00;99.90
57058;DHT22;55017;52.848;6.748;2023-07-20T05:11:12;13.00;99.90
57058;DHT22;55017;52.848;6.748;2023-07-20T05:13:38;13.00;99.90
57058;DHT22;55017;52.848;6.748;2023-07-20T05:16:03;13.10;99.90
57058;DHT22;55017;52.848;6.748;2023-07-20T05:18:29;13.20;99.90
57058;DHT22;55017;52.848;6.748;2023-07-20T05:20:55;13.10;99.90
57058;DHT22;55017;52.848;6.748;2023-07-20T05:23:21;13.20;99.90
57058;DHT22;55017;52.848;6.748;2023-07-20T05:25:48;13.30;99.90
57058;DHT22;55017;52.848;6.748;2023-07-20T05:28:18;13.30;99.90
57058;DHT22;55017;52.848;6.748;2023-07-20T05:30:44;13.40;99.90
57058;DHT22;55017;52.848;6.748;2023-07-20T05:33:10;13.40;99.90
57058;DHT22;55017;52.848;6.748;2023-07-20T05:35:36;13.60;99.90
57058;DHT22;55017;52.848;6.748;2023-07-20T05:38:02;13.60;99.90
57058;DHT22;55017;52.848;6.748;2023-07-20T05:40:29;13.60;99.90
57058;DHT22;55017;52.848;6.748;2023-07-20T05:42:55;13.70;99.90
57058;DHT22;55017;52.848;6.748;2023-07-20T05:45:22;13.80;99.90
57058;DHT22;55017;52.848;6.748;2023-07-20T05:47:48;13.90;99.90
57058;DHT22;55017;52.848;6.748;2023-07-20T05:50:13;13.90;99.90
57058;DHT22;55017;52.848;6.748;2023-07-20T05:52:40;14.10;99.90
57058;DHT22;55017;52.848;6.748;2023-07-20T05:55:06;14.20;99.90
57058;DHT22;55017;52.848;6.748;2023-07-20T05:57:32;14.20;99.90
57058;DHT22;55017;52.848;6.748;2023-07-20T05:59:58;14.30;99.90
57058;DHT22;55017;52.848;6.748;2023-07-20T06:02:23;14.40;99.90
57058;DHT22;55017;52.848;6.748;2023-07-20T06:04:49;14.50;99.90
57058;DHT22;55017;52.848;6.748;2023-07-20T06:07:15;14.60;99.90
57058;DHT22;55017;52.848;6.748;2023-07-20T06:09:40;14.60;99.90
57058;DHT22;55017;52.848;6.748;2023-07-20T06:12:07;14.80;99.90
57058;DHT22;55017;52.848;6.748;2023-07-20T06:14:32;14.90;99.90
57058;DHT22;55017;52.848;6.748;2023-07-20T06:16:58;15.00;99.90
57058;DHT22;55017;52.848;6.748;2023-07-20T06:19:24;15.10;99.90
57058;DHT22;55017;52.848;6.748;2023-07-20T06:21:50;15.20;99.90
57058;DHT22;55017;52.848;6.748;2023-07-20T06:24:17;15.40;99.90
57058;DHT22;55017;52.848;6.748;2023-07-20T06:26:42;15.50;99.90
57058;DHT22;55017;52.848;6.748;2023-07-20T06:29:08;15.60;99.90
57058;DHT22;55017;52.848;6.748;2023-07-20T06:31:35;15.70;99.90
57058;DHT22;55017;52.848;6.748;2023-07-20T06:34:01;15.80;99.90
57058;DHT22;55017;52.848;6.748;2023-07-20T06:36:27;15.90;99.90
57058;DHT22;55017;52.848;6.748;2023-07-20T06:38:52;15.90;99.90
57058;DHT22;55017;52.848;6.748;2023-07-20T06:41:18;16.10;99.90
57058;DHT22;55017;52.848;6.748;2023-07-20T06:43:44;16.20;99.90
57058;DHT22;55017;52.848;6.748;2023-07-20T06:46:10;16.30;99.90
57058;DHT22;55017;52.848;6.748;2023-07-20T06:48:35;16.30;99.90
57058;DHT22;55017;52.848;6.748;2023-07-20T06:51:01;16.40;99.90
57058;DHT22;55017;52.848;6.748;2023-07-20T06:53:28;16.50;99.90
57058;DHT22;55017;52.848;6.748;2023-07-20T06:55:54;16.60;99.90
57058;DHT22;55017;52.848;6.748;2023-07-20T06:58:25;16.70;99.90
57058;DHT22;55017;52.848;6.748;2023-07-20T07:00:51;16.80;99.90
57058;DHT22;55017;52.848;6.748;2023-07-20T07:03:17;16.90;99.90
57058;DHT22;55017;52.848;6.748;2023-07-20T07:05:44;17.10;99.90
57058;DHT22;55017;52.848;6.748;2023-07-20T07:08:11;17.20;99.90
57058;DHT22;55017;52.848;6.748;2023-07-20T07:10:37;17.20;99.90
57058;DHT22;55017;52.848;6.748;2023-07-20T07:13:02;17.30;99.90
57058;DHT22;55017;52.848;6.748;2023-07-20T07:15:29;17.30;99.90
57058;DHT22;55017;52.848;6.748;2023-07-20T07:17:54;17.40;99.90
57058;DHT22;55017;52.848;6.748;2023-07-20T07:20:21;17.50;99.90
57058;DHT22;55017;52.848;6.748;2023-07-20T07:22:47;17.80;99.90
57058;DHT22;55017;52.848;6.748;2023-07-20T07:25:13;17.90;99.90
57058;DHT22;55017;52.848;6.748;2023-07-20T07:27:39;18.00;99.90
57058;DHT22;55017;52.848;6.748;2023-07-20T07:30:05;18.20;99.90
57058;DHT22;55017;52.848;6.748;2023-07-20T07:32:31;18.40;99.90
57058;DHT22;55017;52.848;6.748;2023-07-20T07:34:57;18.60;99.90
57058;DHT22;55017;52.848;6.748;2023-07-20T07:37:26;18.90;99.90
57058;DHT22;55017;52.848;6.748;2023-07-20T07:39:51;18.90;99.90
57058;DHT22;55017;52.848;6.748;2023-07-20T07:42:17;19.20;99.90
57058;DHT22;55017;52.848;6.748;2023-07-20T07:44:44;19.20;99.90
57058;DHT22;55017;52.848;6.748;2023-07-20T07:47:10;19.30;99.90
57058;DHT22;55017;52.848;6.748;2023-07-20T07:49:35;19.10;99.90
57058;DHT22;55017;52.848;6.748;2023-07-20T07:52:01;19.10;99.90
57058;DHT22;55017;52.848;6.748;2023-07-20T07:54:29;19.10;99.90
57058;DHT22;55017;52.848;6.748;2023-07-20T07:56:55;19.20;99.90
57058;DHT22;55017;52.848;6.748;2023-07-20T07:59:21;19.20;99.90
57058;DHT22;55017;52.848;6.748;2023-07-20T08:01:46;19.10;99.90
57058;DHT22;55017;52.848;6.748;2023-07-20T08:04:12;19.00;99.90
57058;DHT22;55017;52.848;6.748;2023-07-20T08:06:38;19.00;99.90
57058;DHT22;55017;52.848;6.748;2023-07-20T08:09:04;19.20;99.90
57058;DHT22;55017;52.848;6.748;2023-07-20T08:11:30;19.40;99.90
57058;DHT22;55017;52.848;6.748;2023-07-20T08:13:59;19.60;99.90
57058;DHT22;55017;52.848;6.748;2023-07-20T08:16:25;19.80;99.90
57058;DHT22;55017;52.848;6.748;2023-07-20T08:18:50;19.70;98.70
57058;DHT22;55017;52.848;6.748;2023-07-20T08:21:16;19.90;99.90
57058;DHT22;55017;52.848;6.748;2023-07-20T08:23:42;20.10;99.90
57058;DHT22;55017;52.848;6.748;2023-07-20T08:26:07;20.20;99.40
57058;DHT22;55017;52.848;6.748;2023-07-20T08:28:34;20.50;99.90
57058;DHT22;55017;52.848;6.748;2023-07-20T08:30:59;20.60;99.00
57058;DHT22;55017;52.848;6.748;2023-07-20T08:33:25;20.60;99.90
57058;DHT22;55017;52.848;6.748;2023-07-20T08:35:50;20.60;98.20
57058;DHT22;55017;52.848;6.748;2023-07-20T08:38:16;20.60;98.20
57058;DHT22;55017;52.848;6.748;2023-07-20T08:40:44;20.80;96.20
57058;DHT22;55017;52.848;6.748;2023-07-20T08:43:14;20.60;97.60
57058;DHT22;55017;52.848;6.748;2023-07-20T08:45:42;20.80;97.70
57058;DHT22;55017;52.848;6.748;2023-07-20T08:48:11;20.90;97.40
57058;DHT22;55017;52.848;6.748;2023-07-20T08:50:38;21.20;97.70
57058;DHT22;55017;52.848;6.748;2023-07-20T08:53:04;21.10;96.70
57058;DHT22;55017;52.848;6.748;2023-07-20T08:55:30;21.20;95.20
57058;DHT22;55017;52.848;6.748;2023-07-20T08:57:58;21.50;95.40
57058;DHT22;55017;52.848;6.748;2023-07-20T09:00:25;21.60;93.50
57058;DHT22;55017;52.848;6.748;2023-07-20T09:02:53;21.80;94.00
57058;DHT22;55017;52.848;6.748;2023-07-20T09:05:23;22.00;93.40
57058;DHT22;55017;52.848;6.748;2023-07-20T09:07:50;22.10;93.00
57058;DHT22;55017;52.848;6.748;2023-07-20T09:10:16;22.20;92.80
57058;DHT22;55017;52.848;6.748;2023-07-20T09:12:43;22.20;93.90
57058;DHT22;55017;52.848;6.748;2023-07-20T09:15:10;22.20;91.80
57058;DHT22;55017;52.848;6.748;2023-07-20T09:17:36;22.30;72.50
57058;DHT22;55017;52.848;6.748;2023-07-20T09:20:07;22.30;81.20
57058;DHT22;55017;52.848;6.748;2023-07-20T09:22:36;22.40;82.80
57058;DHT22;55017;52.848;6.748;2023-07-20T09:25:15;22.60;85.50
57058;DHT22;55017;52.848;6.748;2023-07-20T09:27:46;22.70;85.20
57058;DHT22;55017;52.848;6.748;2023-07-20T09:30:12;22.80;85.00
57058;DHT22;55017;52.848;6.748;2023-07-20T09:35:15;22.50;82.10
57058;DHT22;55017;52.848;6.748;2023-07-20T09:37:58;22.20;81.80
57058;DHT22;55017;52.848;6.748;2023-07-20T09:40:25;22.20;78.00
57058;DHT22;55017;52.848;6.748;2023-07-20T09:42:52;22.30;74.80
57058;DHT22;55017;52.848;6.748;2023-07-20T09:45:18;22.50;70.30
57058;DHT22;55017;52.848;6.748;2023-07-20T09:47:43;22.50;75.20
57058;DHT22;55017;52.848;6.748;2023-07-20T09:50:09;22.50;75.20
57058;DHT22;55017;52.848;6.748;2023-07-20T09:52:39;22.80;77.10
57058;DHT22;55017;52.848;6.748;2023-07-20T09:55:07;23.00;79.90
57058;DHT22;55017;52.848;6.748;2023-07-20T09:57:33;23.00;77.20
57058;DHT22;55017;52.848;6.748;2023-07-20T10:00:01;23.20;72.60
57058;DHT22;55017;52.848;6.748;2023-07-20T10:02:33;23.30;73.90
57058;DHT22;55017;52.848;6.748;2023-07-20T10:05:03;23.60;71.30
57058;DHT22;55017;52.848;6.748;2023-07-20T10:07:30;23.50;72.60
57058;DHT22;55017;52.848;6.748;2023-07-20T10:09:56;23.70;72.90
57058;DHT22;55017;52.848;6.748;2023-07-20T10:12:25;24.10;73.20
57058;DHT22;55017;52.848;6.748;2023-07-20T10:15:41;24.30;73.10
57058;DHT22;55017;52.848;6.748;2023-07-20T10:20:47;23.60;64.40
57058;DHT22;55017;52.848;6.748;2023-07-20T10:23:14;23.20;71.60
57058;DHT22;55017;52.848;6.748;2023-07-20T10:25:40;23.10;74.20
57058;DHT22;55017;52.848;6.748;2023-07-20T10:28:08;23.10;73.60
57058;DHT22;55017;52.848;6.748;2023-07-20T10:30:35;22.90;70.90
57058;DHT22;55017;52.848;6.748;2023-07-20T10:33:05;22.80;74.10
57058;DHT22;55017;52.848;6.748;2023-07-20T10:35:50;22.90;72.60
57058;DHT22;55017;52.848;6.748;2023-07-20T10:38:15;22.80;77.50
57058;DHT22;55017;52.848;6.748;2023-07-20T10:40:41;22.70;73.60
57058;DHT22;55017;52.848;6.748;2023-07-20T10:43:08;22.80;74.40
57058;DHT22;55017;52.848;6.748;2023-07-20T10:45:42;22.80;71.70
57058;DHT22;55017;52.848;6.748;2023-07-20T10:48:18;22.90;73.50
57058;DHT22;55017;52.848;6.748;2023-07-20T10:50:45;23.00;72.80
57058;DHT22;55017;52.848;6.748;2023-07-20T10:53:16;23.00;71.90
57058;DHT22;55017;52.848;6.748;2023-07-20T10:55:42;22.90;70.40
57058;DHT22;55017;52.848;6.748;2023-07-20T10:58:13;22.90;71.70
57058;DHT22;55017;52.848;6.748;2023-07-20T11:00:57;22.90;64.70
57058;DHT22;55017;52.848;6.748;2023-07-20T11:03:30;22.90;69.00
57058;DHT22;55017;52.848;6.748;2023-07-20T11:05:57;22.80;69.10
57058;DHT22;55017;52.848;6.748;2023-07-20T11:08:42;22.70;67.50
57058;DHT22;55017;52.848;6.748;2023-07-20T11:11:29;22.80;68.40
57058;DHT22;55017;52.848;6.748;2023-07-20T11:14:00;23.10;70.80
57058;DHT22;55017;52.848;6.748;2023-07-20T11:16:45;23.30;73.40
57058;DHT22;55017;52.848;6.748;2023-07-20T11:21:57;23.00;68.30
57058;DHT22;55017;52.848;6.748;2023-07-20T11:24:23;22.80;74.40
57058;DHT22;55017;52.848;6.748;2023-07-20T11:26:52;22.70;72.30
57058;DHT22;55017;52.848;6.748;2023-07-20T11:29:22;22.90;71.30
57058;DHT22;55017;52.848;6.748;2023-07-20T11:31:49;23.10;74.40
57058;DHT22;55017;52.848;6.748;2023-07-20T11:34:17;22.80;75.10
57058;DHT22;55017;52.848;6.748;2023-07-20T11:36:44;22.60;73.00
57058;DHT22;55017;52.848;6.748;2023-07-20T11:39:15;22.70;73.50
57058;DHT22;55017;52.848;6.748;2023-07-20T11:41:47;22.80;73.20
57058;DHT22;55017;52.848;6.748;2023-07-20T11:44:14;22.80;72.80
57058;DHT22;55017;52.848;6.748;2023-07-20T11:46:42;22.80;71.00
57058;DHT22;55017;52.848;6.748;2023-07-20T11:49:08;22.80;72.90
57058;DHT22;55017;52.848;6.748;2023-07-20T11:51:34;22.90;73.90
57058;DHT22;55017;52.848;6.748;2023-07-20T11:54:01;23.00;70.70
57058;DHT22;55017;52.848;6.748;2023-07-20T11:56:27;23.10;68.80
57058;DHT22;55017;52.848;6.748;2023-07-20T11:58:58;23.00;71.70
57058;DHT22;55017;52.848;6.748;2023-07-20T12:01:29;22.80;67.10
57058;DHT22;55017;52.848;6.748;2023-07-20T12:04:12;23.00;70.30
57058;DHT22;55017;52.848;6.748;2023-07-20T12:06:38;23.20;70.40
57058;DHT22;55017;52.848;6.748;2023-07-20T12:09:04;23.50;70.70
57058;DHT22;55017;52.848;6.748;2023-07-20T12:11:35;23.60;69.00
57058;DHT22;55017;52.848;6.748;2023-07-20T12:14:08;23.50;68.70
57058;DHT22;55017;52.848;6.748;2023-07-20T12:16:35;23.60;69.10
57058;DHT22;55017;52.848;6.748;2023-07-20T12:19:02;23.90;69.90
57058;DHT22;55017;52.848;6.748;2023-07-20T12:21:30;24.00;70.20
57058;DHT22;55017;52.848;6.748;2023-07-20T12:23:57;24.50;69.20
57058;DHT22;55017;52.848;6.748;2023-07-20T12:26:24;24.60;67.30
57058;DHT22;55017;52.848;6.748;2023-07-20T12:28:51;24.70;67.00
57058;DHT22;55017;52.848;6.748;2023-07-20T12:31:16;24.50;65.90
57058;DHT22;55017;52.848;6.748;2023-07-20T12:33:42;24.40;66.80
57058;DHT22;55017;52.848;6.748;2023-07-20T12:36:09;24.10;67.50
57058;DHT22;55017;52.848;6.748;2023-07-20T12:38:35;23.60;67.60
57058;DHT22;55017;52.848;6.748;2023-07-20T12:41:01;23.30;70.20
57058;DHT22;55017;52.848;6.748;2023-07-20T12:43:27;23.00;72.20
57058;DHT22;55017;52.848;6.748;2023-07-20T12:45:53;22.80;73.20
57058;DHT22;55017;52.848;6.748;2023-07-20T12:48:18;22.60;72.40
57058;DHT22;55017;52.848;6.748;2023-07-20T12:50:44;22.50;73.00
57058;DHT22;55017;52.848;6.748;2023-07-20T12:53:10;22.50;71.10
57058;DHT22;55017;52.848;6.748;2023-07-20T12:55:35;22.50;73.70
57058;DHT22;55017;52.848;6.748;2023-07-20T12:58:01;22.50;73.80
57058;DHT22;55017;52.848;6.748;2023-07-20T13:00:27;22.50;75.10
57058;DHT22;55017;52.848;6.748;2023-07-20T13:02:52;22.40;73.70
57058;DHT22;55017;52.848;6.748;2023-07-20T13:05:18;22.40;72.60
57058;DHT22;55017;52.848;6.748;2023-07-20T13:07:44;22.80;74.30
57058;DHT22;55017;52.848;6.748;2023-07-20T13:10:10;22.80;71.30
57058;DHT22;55017;52.848;6.748;2023-07-20T13:12:37;23.10;73.20
57058;DHT22;55017;52.848;6.748;2023-07-20T13:15:07;23.40;69.80
57058;DHT22;55017;52.848;6.748;2023-07-20T13:17:38;23.70;68.40
57058;DHT22;55017;52.848;6.748;2023-07-20T13:20:06;24.10;69.60
57058;DHT22;55017;52.848;6.748;2023-07-20T13:22:33;24.00;66.60
57058;DHT22;55017;52.848;6.748;2023-07-20T13:24:59;24.20;69.50
57058;DHT22;55017;52.848;6.748;2023-07-20T13:27:25;24.00;67.90
57058;DHT22;55017;52.848;6.748;2023-07-20T13:29:53;23.80;66.00
57058;DHT22;55017;52.848;6.748;2023-07-20T13:32:19;23.90;67.90
57058;DHT22;55017;52.848;6.748;2023-07-20T13:34:45;23.70;67.50
57058;DHT22;55017;52.848;6.748;2023-07-20T13:37:11;23.50;65.70
57058;DHT22;55017;52.848;6.748;2023-07-20T13:39:37;23.10;67.60
57058;DHT22;55017;52.848;6.748;2023-07-20T13:42:04;23.00;67.00
57058;DHT22;55017;52.848;6.748;2023-07-20T13:44:33;22.70;67.40
57058;DHT22;55017;52.848;6.748;2023-07-20T13:47:00;22.60;69.00
57058;DHT22;55017;52.848;6.748;2023-07-20T13:49:25;22.30;69.20
57058;DHT22;55017;52.848;6.748;2023-07-20T13:51:51;22.10;69.40
57058;DHT22;55017;52.848;6.748;2023-07-20T13:54:17;22.00;73.40
57058;DHT22;55017;52.848;6.748;2023-07-20T13:56:42;21.70;74.70
57058;DHT22;55017;52.848;6.748;2023-07-20T13:59:08;21.50;77.80
57058;DHT22;55017;52.848;6.748;2023-07-20T14:01:33;21.30;81.00
57058;DHT22;55017;52.848;6.748;2023-07-20T14:04:01;21.10;83.60
57058;DHT22;55017;52.848;6.748;2023-07-20T14:06:30;20.80;85.90
57058;DHT22;55017;52.848;6.748;2023-07-20T14:08:56;20.50;88.60
57058;DHT22;55017;52.848;6.748;2023-07-20T14:11:22;20.20;91.40
57058;DHT22;55017;52.848;6.748;2023-07-20T14:13:47;19.90;93.30
57058;DHT22;55017;52.848;6.748;2023-07-20T14:16:13;19.80;95.10
57058;DHT22;55017;52.848;6.748;2023-07-20T14:18:39;19.50;96.70
57058;DHT22;55017;52.848;6.748;2023-07-20T14:21:04;19.30;98.70
57058;DHT22;55017;52.848;6.748;2023-07-20T14:23:32;19.40;99.70
57058;DHT22;55017;52.848;6.748;2023-07-20T14:25:58;19.80;99.90
57058;DHT22;55017;52.848;6.748;2023-07-20T14:28:24;21.10;99.90
57058;DHT22;55017;52.848;6.748;2023-07-20T14:30:50;22.80;99.10
57058;DHT22;55017;52.848;6.748;2023-07-20T14:33:15;24.10;94.70
57058;DHT22;55017;52.848;6.748;2023-07-20T14:35:41;25.30;90.10
57058;DHT22;55017;52.848;6.748;2023-07-20T14:38:06;26.50;83.40
57058;DHT22;55017;52.848;6.748;2023-07-20T14:40:32;27.40;77.80
57058;DHT22;55017;52.848;6.748;2023-07-20T14:42:58;27.80;72.70
57058;DHT22;55017;52.848;6.748;2023-07-20T14:45:29;27.50;70.80
57058;DHT22;55017;52.848;6.748;2023-07-20T14:47:54;26.70;69.70
57058;DHT22;55017;52.848;6.748;2023-07-20T14:50:20;26.30;68.20
57058;DHT22;55017;52.848;6.748;2023-07-20T14:52:46;26.10;66.60
57058;DHT22;55017;52.848;6.748;2023-07-20T14:55:13;26.00;65.50
57058;DHT22;55017;52.848;6.748;2023-07-20T14:57:38;25.90;67.40
57058;DHT22;55017;52.848;6.748;2023-07-20T15:00:05;25.70;67.30
57058;DHT22;55017;52.848;6.748;2023-07-20T15:02:36;25.40;65.80
57058;DHT22;55017;52.848;6.748;2023-07-20T15:05:06;25.00;68.70
57058;DHT22;55017;52.848;6.748;2023-07-20T15:07:32;24.70;68.10
57058;DHT22;55017;52.848;6.748;2023-07-20T15:09:57;24.70;68.10
57058;DHT22;55017;52.848;6.748;2023-07-20T15:12:23;24.40;70.20
57058;DHT22;55017;52.848;6.748;2023-07-20T15:15:09;24.00;70.50
57058;DHT22;55017;52.848;6.748;2023-07-20T15:17:37;23.50;72.60
57058;DHT22;55017;52.848;6.748;2023-07-20T15:20:04;23.20;73.80
57058;DHT22;55017;52.848;6.748;2023-07-20T15:22:31;23.00;74.60
57058;DHT22;55017;52.848;6.748;2023-07-20T15:24:57;22.90;75.00
57058;DHT22;55017;52.848;6.748;2023-07-20T15:27:22;22.60;75.40
57058;DHT22;55017;52.848;6.748;2023-07-20T15:29:49;22.40;75.60
57058;DHT22;55017;52.848;6.748;2023-07-20T15:32:15;22.30;76.30
57058;DHT22;55017;52.848;6.748;2023-07-20T15:34:44;22.30;77.00
57058;DHT22;55017;52.848;6.748;2023-07-20T15:37:10;22.40;77.60
57058;DHT22;55017;52.848;6.748;2023-07-20T15:39:36;22.40;77.70
57058;DHT22;55017;52.848;6.748;2023-07-20T15:42:02;22.30;77.60
57058;DHT22;55017;52.848;6.748;2023-07-20T15:44:28;22.10;75.40